sensor_id;sensor_type;location;lat;lon;timestamp;P1;durP1;ratioP1;P2;durP2;ratioP2
82182;SDS011;71763;52.220;13.000;2023-09-08T00:01:19;0.00;;;0.00;;
82182;SDS011;71763;52.220;13.000;2023-09-08T00:03:45;0.00;;;0.00;;
82182;SDS011;71763;52.220;13.000;2023-09-08T00:06:10;0.00;;;0.00;;
82182;SDS011;71763;52.220;13.000;2023-09-08T00:08:36;0.00;;;0.00;;
82182;SDS011;71763;52.220;13.000;2023-09-08T00:11:01;0.00;;;0.00;;
82182;SDS011;71763;52.220;13.000;2023-09-08T00:13:27;0.00;;;0.00;;
82182;SDS011;71763;52.220;13.000;2023-09-08T00:15:52;0.00;;;0.00;;
82182;SDS011;71763;52.220;13.000;2023-09-08T00:18:18;0.00;;;0.00;;
82182;SDS011;71763;52.220;13.000;2023-09-08T00:20:43;0.00;;;0.00;;
82182;SDS011;71763;52.220;13.000;2023-09-08T00:23:09;0.20;;;0.08;;
82182;SDS011;71763;52.220;13.000;2023-09-08T00:25:34;0.00;;;0.00;;
82182;SDS011;71763;52.220;13.000;2023-09-08T00:28:00;0.00;;;0.00;;
82182;SDS011;71763;52.220;13.000;2023-09-08T00:30:25;0.00;;;0.00;;
82182;SDS011;71763;52.220;13.000;2023-09-08T00:32:51;0.10;;;0.00;;
82182;SDS011;71763;52.220;13.000;2023-09-08T00:35:16;0.10;;;0.10;;
82182;SDS011;71763;52.220;13.000;2023-09-08T00:37:42;0.00;;;0.00;;
82182;SDS011;71763;52.220;13.000;2023-09-08T00:40:08;0.00;;;0.00;;
82182;SDS011;71763;52.220;13.000;2023-09-08T00:42:34;0.00;;;0.00;;
82182;SDS011;71763;52.220;13.000;2023-09-08T00:45:00;0.05;;;0.00;;
82182;SDS011;71763;52.220;13.000;2023-09-08T00:47:26;0.00;;;0.00;;
82182;SDS011;71763;52.220;13.000;2023-09-08T00:49:51;0.00;;;0.00;;
82182;SDS011;71763;52.220;13.000;2023-09-08T00:52:17;0.00;;;0.00;;
82182;SDS011;71763;52.220;13.000;2023-09-08T00:54:42;0.00;;;0.00;;
82182;SDS011;71763;52.220;13.000;2023-09-08T00:57:08;0.05;;;0.00;;
82182;SDS011;71763;52.220;13.000;2023-09-08T00:59:35;0.00;;;0.00;;
82182;SDS011;71763;52.220;13.000;2023-09-08T01:02:01;0.00;;;0.00;;
82182;SDS011;71763;52.220;13.000;2023-09-08T01:04:27;0.05;;;0.00;;
82182;SDS011;71763;52.220;13.000;2023-09-08T01:06:53;0.00;;;0.00;;
82182;SDS011;71763;52.220;13.000;2023-09-08T01:09:20;0.00;;;0.00;;
82182;SDS011;71763;52.220;13.000;2023-09-08T01:11:46;0.10;;;0.10;;
82182;SDS011;71763;52.220;13.000;2023-09-08T01:14:12;0.00;;;0.00;;
82182;SDS011;71763;52.220;13.000;2023-09-08T01:16:40;0.00;;;0.00;;
82182;SDS011;71763;52.220;13.000;2023-09-08T01:19:11;0.00;;;0.00;;
82182;SDS011;71763;52.220;13.000;2023-09-08T01:27:35;0.00;;;0.00;;
82182;SDS011;71763;52.220;13.000;2023-09-08T01:30:03;0.00;;;0.00;;
82182;SDS011;71763;52.220;13.000;2023-09-08T01:32:30;0.00;;;0.00;;
82182;SDS011;71763;52.220;13.000;2023-09-08T01:34:57;0.00;;;0.00;;
82182;SDS011;71763;52.220;13.000;2023-09-08T01:37:24;0.00;;;0.00;;
82182;SDS011;71763;52.220;13.000;2023-09-08T01:39:49;0.00;;;0.00;;
82182;SDS011;71763;52.220;13.000;2023-09-08T01:42:15;0.00;;;0.00;;
82182;SDS011;71763;52.220;13.000;2023-09-08T01:44:40;0.00;;;0.00;;
82182;SDS011;71763;52.220;13.000;2023-09-08T01:47:06;0.00;;;0.00;;
82182;SDS011;71763;52.220;13.000;2023-09-08T01:49:31;0.00;;;0.00;;
82182;SDS011;71763;52.220;13.000;2023-09-08T01:51:57;0.10;;;0.10;;
82182;SDS011;71763;52.220;13.000;2023-09-08T01:54:22;0.00;;;0.00;;
82182;SDS011;71763;52.220;13.000;2023-09-08T01:56:48;0.00;;;0.00;;
82182;SDS011;71763;52.220;13.000;2023-09-08T01:59:13;0.00;;;0.00;;
82182;SDS011;71763;52.220;13.000;2023-09-08T02:01:39;0.00;;;0.00;;
82182;SDS011;71763;52.220;13.000;2023-09-08T02:04:05;0.00;;;0.00;;
82182;SDS011;71763;52.220;13.000;2023-09-08T02:06:30;0.00;;;0.00;;
82182;SDS011;71763;52.220;13.000;2023-09-08T02:08:56;0.00;;;0.00;;
82182;SDS011;71763;52.220;13.000;2023-09-08T02:11:21;0.00;;;0.00;;
82182;SDS011;71763;52.220;13.000;2023-09-08T02:13:47;0.00;;;0.00;;
82182;SDS011;71763;52.220;13.000;2023-09-08T02:16:13;0.00;;;0.00;;
82182;SDS011;71763;52.220;13.000;2023-09-08T02:18:41;0.00;;;0.00;;
82182;SDS011;71763;52.220;13.000;2023-09-08T02:21:10;0.00;;;0.00;;
82182;SDS011;71763;52.220;13.000;2023-09-08T02:23:36;0.10;;;0.10;;
82182;SDS011;71763;52.220;13.000;2023-09-08T02:26:01;0.00;;;0.00;;
82182;SDS011;71763;52.220;13.000;2023-09-08T02:28:27;0.00;;;0.00;;
82182;SDS011;71763;52.220;13.000;2023-09-08T02:30:53;0.00;;;0.00;;
82182;SDS011;71763;52.220;13.000;2023-09-08T02:33:19;0.00;;;0.00;;
82182;SDS011;71763;52.220;13.000;2023-09-08T02:35:44;0.00;;;0.00;;
82182;SDS011;71763;52.220;13.000;2023-09-08T02:38:10;0.13;;;0.05;;
82182;SDS011;71763;52.220;13.000;2023-09-08T02:40:35;0.10;;;0.10;;
82182;SDS011;71763;52.220;13.000;2023-09-08T02:43:01;0.00;;;0.00;;
82182;SDS011;71763;52.220;13.000;2023-09-08T02:45:27;0.00;;;0.00;;
82182;SDS011;71763;52.220;13.000;2023-09-08T02:47:53;0.00;;;0.00;;
82182;SDS011;71763;52.220;13.000;2023-09-08T02:50:19;0.03;;;0.03;;
82182;SDS011;71763;52.220;13.000;2023-09-08T02:52:44;0.00;;;0.00;;
82182;SDS011;71763;52.220;13.000;2023-09-08T02:55:10;0.00;;;0.00;;
82182;SDS011;71763;52.220;13.000;2023-09-08T02:57:36;0.00;;;0.00;;
82182;SDS011;71763;52.220;13.000;2023-09-08T03:00:02;0.00;;;0.00;;
82182;SDS011;71763;52.220;13.000;2023-09-08T03:02:30;0.00;;;0.00;;
82182;SDS011;71763;52.220;13.000;2023-09-08T03:04:55;0.00;;;0.00;;
82182;SDS011;71763;52.220;13.000;2023-09-08T03:07:21;0.00;;;0.00;;
82182;SDS011;71763;52.220;13.000;2023-09-08T03:09:47;0.00;;;0.00;;
82182;SDS011;71763;52.220;13.000;2023-09-08T03:12:12;0.10;;;0.10;;
82182;SDS011;71763;52.220;13.000;2023-09-08T03:14:38;0.00;;;0.00;;
82182;SDS011;71763;52.220;13.000;2023-09-08T03:17:03;0.00;;;0.00;;
82182;SDS011;71763;52.220;13.000;2023-09-08T03:19:29;0.00;;;0.00;;
82182;SDS011;71763;52.220;13.000;2023-09-08T03:21:54;0.00;;;0.00;;
82182;SDS011;71763;52.220;13.000;2023-09-08T03:24:20;0.10;;;0.05;;
82182;SDS011;71763;52.220;13.000;2023-09-08T03:26:45;0.00;;;0.00;;
82182;SDS011;71763;52.220;13.000;2023-09-08T03:29:11;0.00;;;0.00;;
82182;SDS011;71763;52.220;13.000;2023-09-08T03:31:36;0.00;;;0.00;;
82182;SDS011;71763;52.220;13.000;2023-09-08T03:34:02;0.00;;;0.00;;
82182;SDS011;71763;52.220;13.000;2023-09-08T03:36:27;0.10;;;0.00;;
82182;SDS011;71763;52.220;13.000;2023-09-08T03:38:53;0.00;;;0.00;;
82182;SDS011;71763;52.220;13.000;2023-09-08T03:41:18;0.00;;;0.00;;
82182;SDS011;71763;52.220;13.000;2023-09-08T03:43:44;0.00;;;0.00;;
82182;SDS011;71763;52.220;13.000;2023-09-08T03:46:10;0.00;;;0.00;;
82182;SDS011;71763;52.220;13.000;2023-09-08T03:48:35;0.00;;;0.00;;
82182;SDS011;71763;52.220;13.000;2023-09-08T03:51:01;0.20;;;0.10;;
82182;SDS011;71763;52.220;13.000;2023-09-08T03:53:26;0.00;;;0.00;;
82182;SDS011;71763;52.220;13.000;2023-09-08T03:55:52;0.00;;;0.00;;
82182;SDS011;71763;52.220;13.000;2023-09-08T03:58:17;0.00;;;0.00;;
82182;SDS011;71763;52.220;13.000;2023-09-08T04:00:43;0.00;;;0.00;;
82182;SDS011;71763;52.220;13.000;2023-09-08T04:03:08;0.00;;;0.00;;
82182;SDS011;71763;52.220;13.000;2023-09-08T04:05:34;0.10;;;0.00;;
82182;SDS011;71763;52.220;13.000;2023-09-08T04:07:59;0.00;;;0.00;;
82182;SDS011;71763;52.220;13.000;2023-09-08T04:10:26;0.00;;;0.00;;
82182;SDS011;71763;52.220;13.000;2023-09-08T04:12:51;0.00;;;0.00;;
82182;SDS011;71763;52.220;13.000;2023-09-08T04:15:17;0.00;;;0.00;;
82182;SDS011;71763;52.220;13.000;2023-09-08T04:17:42;0.10;;;0.10;;
82182;SDS011;71763;52.220;13.000;2023-09-08T04:20:08;0.00;;;0.00;;
82182;SDS011;71763;52.220;13.000;2023-09-08T04:22:39;0.00;;;0.00;;
82182;SDS011;71763;52.220;13.000;2023-09-08T04:25:04;0.10;;;0.10;;
82182;SDS011;71763;52.220;13.000;2023-09-08T04:27:30;0.00;;;0.00;;
82182;SDS011;71763;52.220;13.000;2023-09-08T04:29:57;0.00;;;0.00;;
82182;SDS011;71763;52.220;13.000;2023-09-08T04:32:23;0.00;;;0.00;;
82182;SDS011;71763;52.220;13.000;2023-09-08T04:34:49;0.03;;;0.00;;
82182;SDS011;71763;52.220;13.000;2023-09-08T04:37:14;0.00;;;0.00;;
82182;SDS011;71763;52.220;13.000;2023-09-08T04:39:40;0.00;;;0.00;;
82182;SDS011;71763;52.220;13.000;2023-09-08T04:42:06;0.00;;;0.00;;
82182;SDS011;71763;52.220;13.000;2023-09-08T04:44:31;0.00;;;0.00;;
82182;SDS011;71763;52.220;13.000;2023-09-08T04:46:57;0.00;;;0.00;;
82182;SDS011;71763;52.220;13.000;2023-09-08T04:49:22;0.00;;;0.00;;
82182;SDS011;71763;52.220;13.000;2023-09-08T04:51:48;0.10;;;0.10;;
82182;SDS011;71763;52.220;13.000;2023-09-08T04:54:13;0.00;;;0.00;;
82182;SDS011;71763;52.220;13.000;2023-09-08T04:56:39;0.00;;;0.00;;
82182;SDS011;71763;52.220;13.000;2023-09-08T04:59:05;0.10;;;0.00;;
82182;SDS011;71763;52.220;13.000;2023-09-08T05:01:31;0.00;;;0.00;;
82182;SDS011;71763;52.220;13.000;2023-09-08T05:03:57;0.00;;;0.00;;
82182;SDS011;71763;52.220;13.000;2023-09-08T05:06:24;0.00;;;0.00;;
82182;SDS011;71763;52.220;13.000;2023-09-08T05:08:50;0.00;;;0.00;;
82182;SDS011;71763;52.220;13.000;2023-09-08T05:11:16;0.00;;;0.00;;
82182;SDS011;71763;52.220;13.000;2023-09-08T05:13:42;0.00;;;0.00;;
82182;SDS011;71763;52.220;13.000;2023-09-08T05:16:08;0.00;;;0.00;;
82182;SDS011;71763;52.220;13.000;2023-09-08T05:18:40;0.00;;;0.00;;
82182;SDS011;71763;52.220;13.000;2023-09-08T05:21:06;0.05;;;0.00;;
82182;SDS011;71763;52.220;13.000;2023-09-08T05:23:32;0.00;;;0.00;;
82182;SDS011;71763;52.220;13.000;2023-09-08T05:25:58;0.00;;;0.00;;
82182;SDS011;71763;52.220;13.000;2023-09-08T05:28:23;0.00;;;0.00;;
82182;SDS011;71763;52.220;13.000;2023-09-08T05:30:55;0.00;;;0.00;;
82182;SDS011;71763;52.220;13.000;2023-09-08T05:33:20;0.00;;;0.00;;
82182;SDS011;71763;52.220;13.000;2023-09-08T05:35:46;0.00;;;0.00;;
82182;SDS011;71763;52.220;13.000;2023-09-08T05:38:12;0.00;;;0.00;;
82182;SDS011;71763;52.220;13.000;2023-09-08T05:40:37;0.10;;;0.03;;
82182;SDS011;71763;52.220;13.000;2023-09-08T05:43:03;0.00;;;0.00;;
82182;SDS011;71763;52.220;13.000;2023-09-08T05:45:31;0.00;;;0.00;;
82182;SDS011;71763;52.220;13.000;2023-09-08T05:47:57;0.05;;;0.00;;
82182;SDS011;71763;52.220;13.000;2023-09-08T05:50:22;0.00;;;0.00;;
82182;SDS011;71763;52.220;13.000;2023-09-08T05:52:48;0.00;;;0.00;;
82182;SDS011;71763;52.220;13.000;2023-09-08T05:55:13;0.00;;;0.00;;
82182;SDS011;71763;52.220;13.000;2023-09-08T05:57:39;0.00;;;0.00;;
82182;SDS011;71763;52.220;13.000;2023-09-08T06:00:05;0.00;;;0.00;;
82182;SDS011;71763;52.220;13.000;2023-09-08T06:02:32;0.00;;;0.00;;
82182;SDS011;71763;52.220;13.000;2023-09-08T06:04:57;0.00;;;0.00;;
82182;SDS011;71763;52.220;13.000;2023-09-08T06:07:23;0.10;;;0.10;;
82182;SDS011;71763;52.220;13.000;2023-09-08T06:09:48;0.00;;;0.00;;
82182;SDS011;71763;52.220;13.000;2023-09-08T06:12:14;0.10;;;0.10;;
82182;SDS011;71763;52.220;13.000;2023-09-08T06:14:39;0.00;;;0.00;;
82182;SDS011;71763;52.220;13.000;2023-09-08T06:17:05;0.10;;;0.00;;
82182;SDS011;71763;52.220;13.000;2023-09-08T06:19:30;0.10;;;0.10;;
82182;SDS011;71763;52.220;13.000;2023-09-08T06:21:56;0.10;;;0.10;;
82182;SDS011;71763;52.220;13.000;2023-09-08T06:24:21;0.10;;;0.10;;
82182;SDS011;71763;52.220;13.000;2023-09-08T06:26:47;0.10;;;0.10;;
82182;SDS011;71763;52.220;13.000;2023-09-08T06:29:14;0.10;;;0.10;;
82182;SDS011;71763;52.220;13.000;2023-09-08T06:31:40;0.03;;;0.03;;
82182;SDS011;71763;52.220;13.000;2023-09-08T06:34:05;0.00;;;0.00;;
82182;SDS011;71763;52.220;13.000;2023-09-08T06:36:30;0.10;;;0.10;;
82182;SDS011;71763;52.220;13.000;2023-09-08T06:38:56;0.10;;;0.10;;
82182;SDS011;71763;52.220;13.000;2023-09-08T06:41:22;0.10;;;0.10;;
82182;SDS011;71763;52.220;13.000;2023-09-08T06:43:48;0.10;;;0.10;;
82182;SDS011;71763;52.220;13.000;2023-09-08T06:46:14;0.00;;;0.00;;
82182;SDS011;71763;52.220;13.000;2023-09-08T06:48:40;0.10;;;0.10;;
82182;SDS011;71763;52.220;13.000;2023-09-08T06:51:05;0.00;;;0.00;;
82182;SDS011;71763;52.220;13.000;2023-09-08T06:53:31;0.10;;;0.10;;
82182;SDS011;71763;52.220;13.000;2023-09-08T06:55:57;0.10;;;0.10;;
82182;SDS011;71763;52.220;13.000;2023-09-08T06:58:22;0.10;;;0.10;;
82182;SDS011;71763;52.220;13.000;2023-09-08T07:00:49;0.10;;;0.10;;
82182;SDS011;71763;52.220;13.000;2023-09-08T07:05:41;0.10;;;0.10;;
82182;SDS011;71763;52.220;13.000;2023-09-08T07:08:06;0.17;;;0.15;;
82182;SDS011;71763;52.220;13.000;2023-09-08T07:10:32;0.20;;;0.20;;
82182;SDS011;71763;52.220;13.000;2023-09-08T07:12:57;0.15;;;0.15;;
82182;SDS011;71763;52.220;13.000;2023-09-08T07:15:23;0.20;;;0.20;;
82182;SDS011;71763;52.220;13.000;2023-09-08T07:17:48;0.32;;;0.32;;
82182;SDS011;71763;52.220;13.000;2023-09-08T07:20:14;0.40;;;0.40;;
82182;SDS011;71763;52.220;13.000;2023-09-08T07:22:39;0.30;;;0.30;;
82182;SDS011;71763;52.220;13.000;2023-09-08T07:25:05;0.30;;;0.30;;
82182;SDS011;71763;52.220;13.000;2023-09-08T07:27:31;0.40;;;0.40;;
82182;SDS011;71763;52.220;13.000;2023-09-08T07:29:57;0.40;;;0.40;;
82182;SDS011;71763;52.220;13.000;2023-09-08T07:32:22;0.30;;;0.30;;
82182;SDS011;71763;52.220;13.000;2023-09-08T07:37:20;0.30;;;0.30;;
82182;SDS011;71763;52.220;13.000;2023-09-08T07:39:46;0.30;;;0.30;;
82182;SDS011;71763;52.220;13.000;2023-09-08T07:42:12;0.50;;;0.50;;
82182;SDS011;71763;52.220;13.000;2023-09-08T07:44:37;0.53;;;0.50;;
82182;SDS011;71763;52.220;13.000;2023-09-08T07:47:03;0.40;;;0.40;;
82182;SDS011;71763;52.220;13.000;2023-09-08T07:49:28;0.30;;;0.30;;
82182;SDS011;71763;52.220;13.000;2023-09-08T07:51:54;0.30;;;0.30;;
82182;SDS011;71763;52.220;13.000;2023-09-08T07:54:19;0.30;;;0.30;;
82182;SDS011;71763;52.220;13.000;2023-09-08T07:56:45;0.35;;;0.35;;
82182;SDS011;71763;52.220;13.000;2023-09-08T07:59:10;0.30;;;0.30;;
82182;SDS011;71763;52.220;13.000;2023-09-08T08:01:36;0.20;;;0.20;;
82182;SDS011;71763;52.220;13.000;2023-09-08T08:04:01;0.40;;;0.40;;
82182;SDS011;71763;52.220;13.000;2023-09-08T08:06:28;0.28;;;0.28;;
82182;SDS011;71763;52.220;13.000;2023-09-08T08:08:54;0.30;;;0.30;;
82182;SDS011;71763;52.220;13.000;2023-09-08T08:11:21;0.28;;;0.28;;
82182;SDS011;71763;52.220;13.000;2023-09-08T08:13:47;0.30;;;0.30;;
82182;SDS011;71763;52.220;13.000;2023-09-08T08:16:12;0.20;;;0.20;;
82182;SDS011;71763;52.220;13.000;2023-09-08T08:18:38;0.30;;;0.30;;
82182;SDS011;71763;52.220;13.000;2023-09-08T08:21:03;0.30;;;0.30;;
82182;SDS011;71763;52.220;13.000;2023-09-08T08:23:29;0.28;;;0.28;;
82182;SDS011;71763;52.220;13.000;2023-09-08T08:25:56;0.32;;;0.32;;
82182;SDS011;71763;52.220;13.000;2023-09-08T08:28:22;0.43;;;0.43;;
82182;SDS011;71763;52.220;13.000;2023-09-08T08:30:47;0.30;;;0.30;;
82182;SDS011;71763;52.220;13.000;2023-09-08T08:33:13;0.30;;;0.30;;
82182;SDS011;71763;52.220;13.000;2023-09-08T08:35:39;0.22;;;0.22;;
82182;SDS011;71763;52.220;13.000;2023-09-08T08:38:04;0.30;;;0.30;;
82182;SDS011;71763;52.220;13.000;2023-09-08T08:40:30;0.30;;;0.30;;
82182;SDS011;71763;52.220;13.000;2023-09-08T08:42:56;0.40;;;0.40;;
82182;SDS011;71763;52.220;13.000;2023-09-08T08:45:23;0.30;;;0.30;;
82182;SDS011;71763;52.220;13.000;2023-09-08T08:47:52;0.30;;;0.30;;
82182;SDS011;71763;52.220;13.000;2023-09-08T08:50:19;0.20;;;0.20;;
82182;SDS011;71763;52.220;13.000;2023-09-08T08:52:45;0.30;;;0.30;;
82182;SDS011;71763;52.220;13.000;2023-09-08T08:55:11;0.20;;;0.20;;
82182;SDS011;71763;52.220;13.000;2023-09-08T08:57:38;0.40;;;0.40;;
82182;SDS011;71763;52.220;13.000;2023-09-08T09:00:07;0.40;;;0.40;;
82182;SDS011;71763;52.220;13.000;2023-09-08T09:02:36;0.30;;;0.30;;
82182;SDS011;71763;52.220;13.000;2023-09-08T09:05:05;0.20;;;0.20;;
82182;SDS011;71763;52.220;13.000;2023-09-08T09:07:32;0.30;;;0.30;;
82182;SDS011;71763;52.220;13.000;2023-09-08T09:09:58;0.23;;;0.23;;
82182;SDS011;71763;52.220;13.000;2023-09-08T09:12:23;0.30;;;0.30;;
82182;SDS011;71763;52.220;13.000;2023-09-08T09:14:52;0.30;;;0.30;;
82182;SDS011;71763;52.220;13.000;2023-09-08T09:17:18;0.28;;;0.28;;
82182;SDS011;71763;52.220;13.000;2023-09-08T09:19:44;0.40;;;0.40;;
82182;SDS011;71763;52.220;13.000;2023-09-08T09:22:09;0.30;;;0.30;;
82182;SDS011;71763;52.220;13.000;2023-09-08T09:24:39;0.23;;;0.23;;
82182;SDS011;71763;52.220;13.000;2023-09-08T09:27:08;0.30;;;0.30;;
82182;SDS011;71763;52.220;13.000;2023-09-08T09:29:43;0.35;;;0.35;;
82182;SDS011;71763;52.220;13.000;2023-09-08T09:32:13;0.43;;;0.43;;
82182;SDS011;71763;52.220;13.000;2023-09-08T09:34:49;0.40;;;0.40;;
82182;SDS011;71763;52.220;13.000;2023-09-08T09:37:18;0.32;;;0.32;;
82182;SDS011;71763;52.220;13.000;2023-09-08T09:39:45;0.40;;;0.40;;
82182;SDS011;71763;52.220;13.000;2023-09-08T09:42:20;0.30;;;0.30;;
82182;SDS011;71763;52.220;13.000;2023-09-08T09:44:47;0.40;;;0.40;;
82182;SDS011;71763;52.220;13.000;2023-09-08T09:47:13;0.50;;;0.50;;
82182;SDS011;71763;52.220;13.000;2023-09-08T09:49:46;0.40;;;0.40;;
82182;SDS011;71763;52.220;13.000;2023-09-08T09:52:13;0.40;;;0.40;;
82182;SDS011;71763;52.220;13.000;2023-09-08T09:54:40;0.40;;;0.40;;
82182;SDS011;71763;52.220;13.000;2023-09-08T09:57:07;0.40;;;0.40;;
82182;SDS011;71763;52.220;13.000;2023-09-08T09:59:37;0.32;;;0.32;;
82182;SDS011;71763;52.220;13.000;2023-09-08T10:02:04;0.47;;;0.47;;
82182;SDS011;71763;52.220;13.000;2023-09-08T10:04:29;0.43;;;0.43;;
82182;SDS011;71763;52.220;13.000;2023-09-08T10:06:56;0.40;;;0.40;;
82182;SDS011;71763;52.220;13.000;2023-09-08T10:11:49;0.30;;;0.30;;
82182;SDS011;71763;52.220;13.000;2023-09-08T10:14:16;0.47;;;0.47;;
82182;SDS011;71763;52.220;13.000;2023-09-08T10:16:45;0.40;;;0.40;;
82182;SDS011;71763;52.220;13.000;2023-09-08T10:19:14;0.40;;;0.40;;
82182;SDS011;71763;52.220;13.000;2023-09-08T10:21:41;0.40;;;0.40;;
82182;SDS011;71763;52.220;13.000;2023-09-08T10:24:18;0.40;;;0.40;;
82182;SDS011;71763;52.220;13.000;2023-09-08T10:26:56;0.52;;;0.52;;
82182;SDS011;71763;52.220;13.000;2023-09-08T10:29:27;0.50;;;0.50;;
82182;SDS011;71763;52.220;13.000;2023-09-08T10:31:54;0.50;;;0.50;;
82182;SDS011;71763;52.220;13.000;2023-09-08T10:34:22;0.40;;;0.40;;
82182;SDS011;71763;52.220;13.000;2023-09-08T10:36:49;0.50;;;0.50;;
82182;SDS011;71763;52.220;13.000;2023-09-08T10:39:33;0.47;;;0.47;;
82182;SDS011;71763;52.220;13.000;2023-09-08T10:44:43;0.40;;;0.40;;
82182;SDS011;71763;52.220;13.000;2023-09-08T10:47:26;0.50;;;0.50;;
82182;SDS011;71763;52.220;13.000;2023-09-08T10:50:06;0.32;;;0.32;;
82182;SDS011;71763;52.220;13.000;2023-09-08T10:52:34;0.43;;;0.43;;
82182;SDS011;71763;52.220;13.000;2023-09-08T10:55:00;0.50;;;0.50;;
82182;SDS011;71763;52.220;13.000;2023-09-08T10:57:26;0.50;;;0.50;;
82182;SDS011;71763;52.220;13.000;2023-09-08T10:59:56;0.50;;;0.50;;
82182;SDS011;71763;52.220;13.000;2023-09-08T11:05:21;0.50;;;0.50;;
82182;SDS011;71763;52.220;13.000;2023-09-08T11:07:47;0.40;;;0.40;;
82182;SDS011;71763;52.220;13.000;2023-09-08T11:10:14;0.60;;;0.60;;
82182;SDS011;71763;52.220;13.000;2023-09-08T11:12:40;0.50;;;0.50;;
82182;SDS011;71763;52.220;13.000;2023-09-08T11:15:06;0.40;;;0.40;;
82182;SDS011;71763;52.220;13.000;2023-09-08T11:17:34;0.40;;;0.40;;
82182;SDS011;71763;52.220;13.000;2023-09-08T11:20:00;0.57;;;0.57;;
82182;SDS011;71763;52.220;13.000;2023-09-08T11:22:33;0.50;;;0.50;;
82182;SDS011;71763;52.220;13.000;2023-09-08T11:25:00;0.40;;;0.40;;
82182;SDS011;71763;52.220;13.000;2023-09-08T11:27:29;0.50;;;0.50;;
82182;SDS011;71763;52.220;13.000;2023-09-08T11:29:55;0.50;;;0.50;;
82182;SDS011;71763;52.220;13.000;2023-09-08T11:32:22;0.50;;;0.50;;
82182;SDS011;71763;52.220;13.000;2023-09-08T11:34:48;0.50;;;0.50;;
82182;SDS011;71763;52.220;13.000;2023-09-08T11:37:14;0.60;;;0.60;;
82182;SDS011;71763;52.220;13.000;2023-09-08T11:39:43;0.50;;;0.50;;
82182;SDS011;71763;52.220;13.000;2023-09-08T11:42:13;0.50;;;0.50;;
82182;SDS011;71763;52.220;13.000;2023-09-08T11:44:40;0.50;;;0.50;;
82182;SDS011;71763;52.220;13.000;2023-09-08T11:47:08;0.55;;;0.55;;
82182;SDS011;71763;52.220;13.000;2023-09-08T11:49:38;0.43;;;0.43;;
82182;SDS011;71763;52.220;13.000;2023-09-08T11:52:05;0.50;;;0.50;;
82182;SDS011;71763;52.220;13.000;2023-09-08T11:54:31;0.60;;;0.60;;
82182;SDS011;71763;52.220;13.000;2023-09-08T11:57:02;0.43;;;0.43;;
82182;SDS011;71763;52.220;13.000;2023-09-08T11:59:30;0.55;;;0.55;;
82182;SDS011;71763;52.220;13.000;2023-09-08T12:01:57;0.60;;;0.60;;
82182;SDS011;71763;52.220;13.000;2023-09-08T12:04:23;0.50;;;0.50;;
82182;SDS011;71763;52.220;13.000;2023-09-08T12:06:49;0.50;;;0.50;;
82182;SDS011;71763;52.220;13.000;2023-09-08T12:09:17;0.50;;;0.50;;
82182;SDS011;71763;52.220;13.000;2023-09-08T12:11:43;0.50;;;0.50;;
82182;SDS011;71763;52.220;13.000;2023-09-08T12:14:10;0.40;;;0.40;;
82182;SDS011;71763;52.220;13.000;2023-09-08T12:16:37;0.50;;;0.50;;
82182;SDS011;71763;52.220;13.000;2023-09-08T12:19:03;0.60;;;0.60;;
82182;SDS011;71763;52.220;13.000;2023-09-08T12:21:29;0.47;;;0.47;;
82182;SDS011;71763;52.220;13.000;2023-09-08T12:23:56;0.50;;;0.50;;
82182;SDS011;71763;52.220;13.000;2023-09-08T12:26:24;0.40;;;0.40;;
82182;SDS011;71763;52.220;13.000;2023-09-08T12:28:50;0.60;;;0.60;;
82182;SDS011;71763;52.220;13.000;2023-09-08T12:31:17;0.50;;;0.50;;
82182;SDS011;71763;52.220;13.000;2023-09-08T12:33:43;0.52;;;0.52;;
82182;SDS011;71763;52.220;13.000;2023-09-08T12:36:18;0.47;;;0.47;;
82182;SDS011;71763;52.220;13.000;2023-09-08T12:38:47;0.40;;;0.40;;
82182;SDS011;71763;52.220;13.000;2023-09-08T12:41:15;0.50;;;0.50;;
82182;SDS011;71763;52.220;13.000;2023-09-08T12:43:40;0.50;;;0.50;;
82182;SDS011;71763;52.220;13.000;2023-09-08T12:46:06;0.50;;;0.50;;
82182;SDS011;71763;52.220;13.000;2023-09-08T12:48:32;0.50;;;0.50;;
82182;SDS011;71763;52.220;13.000;2023-09-08T12:50:57;0.40;;;0.40;;
82182;SDS011;71763;52.220;13.000;2023-09-08T12:53:23;0.50;;;0.50;;
82182;SDS011;71763;52.220;13.000;2023-09-08T12:55:49;0.40;;;0.40;;
82182;SDS011;71763;52.220;13.000;2023-09-08T12:58:15;0.40;;;0.40;;
82182;SDS011;71763;52.220;13.000;2023-09-08T13:03:08;0.47;;;0.47;;
82182;SDS011;71763;52.220;13.000;2023-09-08T13:05:34;0.50;;;0.50;;
82182;SDS011;71763;52.220;13.000;2023-09-08T13:07:59;0.40;;;0.40;;
82182;SDS011;71763;52.220;13.000;2023-09-08T13:10:25;0.47;;;0.47;;
82182;SDS011;71763;52.220;13.000;2023-09-08T13:12:50;0.50;;;0.50;;
82182;SDS011;71763;52.220;13.000;2023-09-08T13:15:16;0.47;;;0.47;;
82182;SDS011;71763;52.220;13.000;2023-09-08T13:17:41;0.40;;;0.40;;
82182;SDS011;71763;52.220;13.000;2023-09-08T13:20:07;0.43;;;0.43;;
82182;SDS011;71763;52.220;13.000;2023-09-08T13:22:33;0.40;;;0.40;;
82182;SDS011;71763;52.220;13.000;2023-09-08T13:24:59;0.30;;;0.30;;
82182;SDS011;71763;52.220;13.000;2023-09-08T13:27:25;0.40;;;0.40;;
82182;SDS011;71763;52.220;13.000;2023-09-08T13:29:52;0.50;;;0.50;;
82182;SDS011;71763;52.220;13.000;2023-09-08T13:32:18;0.45;;;0.45;;
82182;SDS011;71763;52.220;13.000;2023-09-08T13:34:44;0.50;;;0.50;;
82182;SDS011;71763;52.220;13.000;2023-09-08T13:37:09;0.40;;;0.40;;
82182;SDS011;71763;52.220;13.000;2023-09-08T13:39:36;0.40;;;0.40;;
82182;SDS011;71763;52.220;13.000;2023-09-08T13:42:01;0.50;;;0.50;;
82182;SDS011;71763;52.220;13.000;2023-09-08T13:44:27;0.40;;;0.40;;
82182;SDS011;71763;52.220;13.000;2023-09-08T13:46:53;0.40;;;0.40;;
82182;SDS011;71763;52.220;13.000;2023-09-08T13:49:20;0.38;;;0.38;;
82182;SDS011;71763;52.220;13.000;2023-09-08T13:51:45;0.50;;;0.50;;
82182;SDS011;71763;52.220;13.000;2023-09-08T13:54:11;0.50;;;0.50;;
82182;SDS011;71763;52.220;13.000;2023-09-08T13:56:38;0.40;;;0.40;;
82182;SDS011;71763;52.220;13.000;2023-09-08T13:59:04;0.50;;;0.50;;
82182;SDS011;71763;52.220;13.000;2023-09-08T14:01:32;0.50;;;0.50;;
82182;SDS011;71763;52.220;13.000;2023-09-08T14:03:58;0.40;;;0.40;;
82182;SDS011;71763;52.220;13.000;2023-09-08T14:08:51;0.40;;;0.40;;
82182;SDS011;71763;52.220;13.000;2023-09-08T14:11:16;0.40;;;0.40;;
82182;SDS011;71763;52.220;13.000;2023-09-08T14:13:42;0.43;;;0.43;;
82182;SDS011;71763;52.220;13.000;2023-09-08T14:16:08;0.43;;;0.43;;
82182;SDS011;71763;52.220;13.000;2023-09-08T14:18:34;0.40;;;0.40;;
82182;SDS011;71763;52.220;13.000;2023-09-08T14:20:59;0.40;;;0.40;;
82182;SDS011;71763;52.220;13.000;2023-09-08T14:23:25;0.50;;;0.50;;
82182;SDS011;71763;52.220;13.000;2023-09-08T14:25:51;0.40;;;0.40;;
82182;SDS011;71763;52.220;13.000;2023-09-08T14:28:17;0.40;;;0.40;;
82182;SDS011;71763;52.220;13.000;2023-09-08T14:30:43;0.50;;;0.50;;
82182;SDS011;71763;52.220;13.000;2023-09-08T14:33:09;0.40;;;0.40;;
82182;SDS011;71763;52.220;13.000;2023-09-08T14:35:35;0.40;;;0.40;;
82182;SDS011;71763;52.220;13.000;2023-09-08T14:38:00;0.50;;;0.50;;
82182;SDS011;71763;52.220;13.000;2023-09-08T14:40:26;0.50;;;0.50;;
82182;SDS011;71763;52.220;13.000;2023-09-08T14:42:51;0.40;;;0.40;;
82182;SDS011;71763;52.220;13.000;2023-09-08T14:45:17;0.33;;;0.33;;
82182;SDS011;71763;52.220;13.000;2023-09-08T14:47:42;0.40;;;0.40;;
82182;SDS011;71763;52.220;13.000;2023-09-08T14:50:08;0.40;;;0.40;;
82182;SDS011;71763;52.220;13.000;2023-09-08T14:52:34;0.30;;;0.30;;